map of SJL home
SJL - Airport
Location
City:  São Gabriel da Cachoeira, Amazonas, Brazil
ICAO:SBUA
IATA:SJL

Details
Type:Airport (Aerodrome, Airfield)
Latitude:0°08'54"S (-0.148418)
Longitude:66°59'08"W (-66.985588)
Datum:WGS 1984
Elevation:249 ft (76 m)
Variation:11.68°W (WMM2015 magnetic declination)
-0.14° annual change
Runways:1
Longest:8530 × 148 ft (2600 × 45 m), paved

Time
Time Zone:UTC-4
Local Time:

Weather
METAR:SBUA 142000Z 34005KT 9999 VCSH SCT025 FEW030TCU 31/24 Q1007

Related Locations
Nearby:
Farthest:PSU: 12383 mi / 19928 km
Putussibau [Pangsuma Airport], KB, ID

Find:

   beyond  
but within

Other Information
Maps:
NOTAMs:
Links:
Sources:

  
  • flag of Brazil
  • flag of Amazonas
  

Sectional Chart

Flight Planning
at skyvector.com

Satellite Image

Google Maps Satellite view

 

Copyright © 2004-2018 Karl L. Swartz. All rights reserved.
The Great Circle Mapper name and logo are trademarks of the Great Circle Mapper.
All other trademarks mentioned herein belong to their respective owners.
Please see credits for attibutions and further copyright information.

  Follow gcmap on Facebook Follow gcmap on Twitter Follow gcmap on Google+ GCmap on LinkedIn

hCard Microformat

Geo Microformat